CheckWX is a tool to help pilots better visualize weather data.  It is not intended as a substitute for an official pre-flight weather briefing.

00:49:29 UTC

VTPO TAF
Sukhothai Airport
Thailand
TAF VTPO 112300Z 1200/1224 06004KT 4000 BR NSC BECMG 1201/1203 7000 NSW FEW025

Nov-12@
00:00 UTC

Nov-12 @ 00:00 UTC

Nov-12@
01:00 UTC

Nov-12 @ 01:00 UTC

TAF VTPO 112300Z 1200/1224 06004KT 4000 BR NSC
Wind
  • 060° at 4 KTS
Conditions
Mist
Cloud Levels
  • No significant clouds

Nov-12@
01:00 UTC

Nov-12 @ 01:00 UTC

Nov-13@
00:00 UTC

Nov-13 @ 00:00 UTC

BECMG 1201/1203 7000 NSW FEW025

Becoming

Becoming Conditions expected by Tue, Nov 12, 2019 @ 03:00 UTC

Wind
  • 060° at 4 KTS
Conditions
No significant weather
Cloud Levels
  • Few at 2,500' AGL